KPOC/POC METAR and TAF weather

Enter ICAO airport designator
Station Type Date Time Source
KPOC METAR 2019/10/15 03:47 UTC NOAA

KPOC 150347Z 28006KT 10SM CLR 16/13 A2999 RMK LAST


Station Type Date Time Source
KPOC Decoded METAR 2019/10/15 03:47 UTC NOAA

La Verne / Brackett, CA, United States (KPOC) 34-06N 117-47W
Oct 14, 2019 - 11:47 PM EDT / 2019.10.15 0347 UTC
Wind: from the W (280 degrees) at 7 MPH (6 KT):0
Visibility: 10 mile(s):0
Sky conditions: clear
Temperature: 60 F (16 C)
Dew Point: 55 F (13 C)
Relative Humidity: 82%
Pressure (altimeter): 29.99 in. Hg (1015 hPa)
ob: KPOC 150347Z 28006KT 10SM CLR 16/13 A2999 RMK LAST
cycle: 4

Station Type Date Time Source
KPOC TAF UTC NOAA

Error!

Example: see airport list